createdAt,value
2019-01-21T00:00:37.122Z,-4.85
2019-01-21T00:01:37.080Z,-4.87
2019-01-21T00:02:37.071Z,-4.91
2019-01-21T00:03:37.058Z,-4.89
2019-01-21T00:04:37.082Z,-4.91
2019-01-21T00:05:37.037Z,-4.85
2019-01-21T00:06:37.028Z,-4.87
2019-01-21T00:07:37.023Z,-4.92
2019-01-21T00:08:37.019Z,-4.88
2019-01-21T00:09:36.993Z,-4.99
2019-01-21T00:10:36.991Z,-5.02
2019-01-21T00:11:36.975Z,-5.09
2019-01-21T00:12:36.978Z,-4.99
2019-01-21T00:13:36.958Z,-5.03
2019-01-21T00:14:36.943Z,-4.99
2019-01-21T00:15:36.960Z,-5.03
2019-01-21T00:16:36.929Z,-4.99
2019-01-21T00:17:36.908Z,-4.96
2019-01-21T00:18:36.916Z,-4.95
2019-01-21T00:19:36.888Z,-4.89
2019-01-21T00:20:36.876Z,-4.92
2019-01-21T00:21:36.885Z,-4.92
2019-01-21T00:22:36.872Z,-4.96
2019-01-21T00:23:36.849Z,-4.95
2019-01-21T00:24:36.836Z,-4.95
2019-01-21T00:25:36.819Z,-4.99
2019-01-21T00:26:36.813Z,-4.99
2019-01-21T00:27:36.814Z,-4.99
2019-01-21T00:28:36.787Z,-4.92
2019-01-21T00:29:36.791Z,-4.92
2019-01-21T00:30:36.768Z,-5.02
2019-01-21T00:31:36.774Z,-4.99
2019-01-21T00:32:36.764Z,-4.95
2019-01-21T00:33:36.747Z,-5.03
2019-01-21T00:34:36.724Z,-4.95
2019-01-21T00:35:36.734Z,-5.00
2019-01-21T00:36:36.703Z,-4.95
2019-01-21T00:37:36.694Z,-5.05
2019-01-21T00:38:36.700Z,-5.06
2019-01-21T00:39:37.314Z,-4.92
2019-01-21T00:40:36.683Z,-5.05
2019-01-21T00:41:36.673Z,-4.96
2019-01-21T00:42:36.639Z,-5.00
2019-01-21T00:43:36.630Z,-5.05
2019-01-21T00:44:36.636Z,-5.02
2019-01-21T00:45:36.623Z,-5.00
2019-01-21T00:46:36.593Z,-4.99
2019-01-21T00:47:36.591Z,-5.00
2019-01-21T00:48:36.577Z,-5.06
2019-01-21T00:49:36.565Z,-5.03
2019-01-21T00:50:36.566Z,-4.96
2019-01-21T00:51:36.560Z,-5.08
2019-01-21T00:52:36.528Z,-5.08
2019-01-21T00:53:36.547Z,-5.02
2019-01-21T00:54:36.512Z,-5.00
2019-01-21T00:55:36.494Z,-5.14
2019-01-21T00:56:36.496Z,-5.02
2019-01-21T00:57:36.495Z,-5.00
2019-01-21T00:58:36.464Z,-5.09
2019-01-21T00:59:36.475Z,-4.99
2019-01-21T01:00:36.462Z,-5.02
2019-01-21T01:01:36.432Z,-5.14
2019-01-21T01:02:36.422Z,-4.96
2019-01-21T01:03:36.431Z,-5.13
2019-01-21T01:04:36.405Z,-5.02
2019-01-21T01:05:36.394Z,-4.99
2019-01-21T01:06:36.382Z,-4.98
2019-01-21T01:07:36.366Z,-4.99
2019-01-21T01:08:36.399Z,-4.99
2019-01-21T01:09:36.346Z,-4.99
2019-01-21T01:10:36.334Z,-5.05
2019-01-21T01:11:36.348Z,-5.02
2019-01-21T01:12:36.316Z,-4.95
2019-01-21T01:13:36.306Z,-5.10
2019-01-21T01:14:36.312Z,-5.14
2019-01-21T01:15:36.318Z,-5.25
2019-01-21T01:16:36.273Z,-5.38
2019-01-21T01:17:37.227Z,-5.29
2019-01-21T01:18:36.250Z,-5.33
2019-01-21T01:19:36.242Z,-5.25
2019-01-21T01:20:36.228Z,-5.19
2019-01-21T01:21:36.287Z,-5.31
2019-01-21T01:22:36.226Z,-5.24
2019-01-21T01:23:36.194Z,-5.13
2019-01-21T01:24:36.181Z,-5.17
2019-01-21T01:25:36.179Z,-5.33
2019-01-21T01:26:36.208Z,-5.33
2019-01-21T01:27:36.155Z,-5.25
2019-01-21T01:28:36.161Z,-5.33
2019-01-21T01:29:36.170Z,-5.28
2019-01-21T01:30:36.120Z,-5.25
2019-01-21T01:31:36.110Z,-5.25
2019-01-21T01:32:36.097Z,-5.31
2019-01-21T01:33:36.094Z,-5.21
2019-01-21T01:34:44.817Z,-5.28
2019-01-21T01:35:36.069Z,-5.33
2019-01-21T01:36:36.054Z,-5.17
2019-01-21T01:37:36.045Z,-5.24
2019-01-21T01:38:36.036Z,-5.21
2019-01-21T01:39:36.036Z,-5.18
2019-01-21T01:40:36.034Z,-5.22
2019-01-21T01:41:36.010Z,-5.27
2019-01-21T01:42:35.997Z,-5.25
2019-01-21T01:43:36.011Z,-5.21
2019-01-21T01:44:35.966Z,-5.21
2019-01-21T01:45:35.973Z,-5.21
2019-01-21T01:46:35.945Z,-5.33
2019-01-21T01:47:35.936Z,-5.38
2019-01-21T01:48:35.928Z,-5.31
2019-01-21T01:49:35.913Z,-5.28
2019-01-21T01:50:35.901Z,-5.22
2019-01-21T01:51:35.907Z,-5.21
2019-01-21T01:52:35.880Z,-5.29
2019-01-21T01:53:35.876Z,-5.22
2019-01-21T01:54:35.875Z,-5.19
2019-01-21T01:55:35.848Z,-5.35
2019-01-21T01:56:35.840Z,-5.28
2019-01-21T01:57:35.845Z,-5.36
2019-01-21T01:58:35.816Z,-5.28
2019-01-21T01:59:35.805Z,-5.33
2019-01-21T02:00:35.793Z,-5.38
2019-01-21T02:01:35.806Z,-5.46
2019-01-21T02:02:35.771Z,-5.39
2019-01-21T02:03:35.778Z,-5.28
2019-01-21T02:04:35.750Z,-5.28
2019-01-21T02:05:35.744Z,-5.29
2019-01-21T02:06:35.730Z,-5.36
2019-01-21T02:07:35.725Z,-5.31
2019-01-21T02:08:35.708Z,-5.43
2019-01-21T02:09:35.709Z,-5.47
2019-01-21T02:10:35.699Z,-5.47
2019-01-21T02:11:35.675Z,-5.47
2019-01-21T02:12:35.672Z,-5.49
2019-01-21T02:13:35.661Z,-5.49
2019-01-21T02:14:35.653Z,-5.46
2019-01-21T02:15:35.680Z,-5.47
2019-01-21T02:16:35.643Z,-5.47
2019-01-21T02:17:35.611Z,-5.49
2019-01-21T02:18:35.601Z,-5.56
2019-01-21T02:19:35.590Z,-5.47
2019-01-21T02:20:35.587Z,-5.58
2019-01-21T02:21:35.580Z,-5.51
2019-01-21T02:22:35.555Z,-5.47
2019-01-21T02:23:35.546Z,-5.47
2019-01-21T02:24:35.559Z,-5.49
2019-01-21T02:25:35.525Z,-5.49
2019-01-21T02:26:35.534Z,-5.49
2019-01-21T02:27:35.507Z,-5.43
2019-01-21T02:28:35.489Z,-5.46
2019-01-21T02:29:35.483Z,-5.49
2019-01-21T02:30:35.473Z,-5.51
2019-01-21T02:31:35.462Z,-5.40
2019-01-21T02:32:35.478Z,-5.40
2019-01-21T02:33:35.441Z,-5.46
2019-01-21T02:34:35.425Z,-5.28
2019-01-21T02:35:35.434Z,-5.35
2019-01-21T02:36:35.404Z,-5.29
2019-01-21T02:37:35.396Z,-5.33
2019-01-21T02:38:35.397Z,-5.35
2019-01-21T02:39:35.378Z,-5.40
2019-01-21T02:40:35.386Z,-5.40
2019-01-21T02:41:35.360Z,-5.29
2019-01-21T02:42:35.350Z,-5.28
2019-01-21T02:43:35.333Z,-5.42
2019-01-21T02:44:35.331Z,-5.25
2019-01-21T02:45:35.314Z,-5.28
2019-01-21T02:46:35.301Z,-5.22
2019-01-21T02:47:35.286Z,-5.38
2019-01-21T02:48:35.278Z,-5.38
2019-01-21T02:49:35.290Z,-5.27
2019-01-21T02:50:35.256Z,-5.38
2019-01-21T02:51:35.244Z,-5.38
2019-01-21T02:52:35.231Z,-5.39
2019-01-21T02:53:35.224Z,-5.42
2019-01-21T02:54:35.231Z,-5.49
2019-01-21T02:55:35.217Z,-5.45
2019-01-21T02:56:35.190Z,-5.51
2019-01-21T02:57:35.183Z,-5.51
2019-01-21T02:58:35.169Z,-5.47
2019-01-21T02:59:35.158Z,-5.51
2019-01-21T03:00:35.180Z,-5.54
2019-01-21T03:01:35.139Z,-5.67
2019-01-21T03:02:35.130Z,-5.53
2019-01-21T03:03:35.117Z,-5.56
2019-01-21T03:04:35.105Z,-5.46
2019-01-21T03:05:35.123Z,-5.51
2019-01-21T03:06:35.110Z,-5.49
2019-01-21T03:07:35.134Z,-5.53
2019-01-21T03:08:35.063Z,-5.46
2019-01-21T03:09:35.067Z,-5.57
2019-01-21T03:10:35.044Z,-5.53
2019-01-21T03:11:35.057Z,-5.61
2019-01-21T03:12:35.019Z,-5.71
2019-01-21T03:13:35.004Z,-5.66
2019-01-21T03:14:34.992Z,-5.61
2019-01-21T03:15:34.985Z,-5.67
2019-01-21T03:16:34.989Z,-5.68
2019-01-21T03:17:34.983Z,-5.61
2019-01-21T03:18:34.978Z,-5.66
2019-01-21T03:19:34.976Z,-5.79
2019-01-21T03:20:34.932Z,-5.79
2019-01-21T03:21:34.924Z,-5.74
2019-01-21T03:22:34.928Z,-5.72
2019-01-21T03:23:34.912Z,-5.71
2019-01-21T03:24:34.921Z,-5.75
2019-01-21T03:25:34.879Z,-5.78
2019-01-21T03:26:34.866Z,-5.76
2019-01-21T03:27:34.866Z,-5.76
2019-01-21T03:28:34.861Z,-5.78
2019-01-21T03:29:34.846Z,-5.78
2019-01-21T03:30:34.835Z,-5.79
2019-01-21T03:31:34.820Z,-5.85
2019-01-21T03:32:34.837Z,-5.78
2019-01-21T03:33:34.843Z,-5.76
2019-01-21T03:34:34.788Z,-5.79
2019-01-21T03:35:34.784Z,-5.79
2019-01-21T03:36:34.756Z,-5.79
2019-01-21T03:37:34.755Z,-5.76
2019-01-21T03:38:34.743Z,-5.76
2019-01-21T03:39:34.734Z,-5.81
2019-01-21T03:40:34.729Z,-5.74
2019-01-21T03:41:34.706Z,-5.72
2019-01-21T03:42:34.715Z,-5.79
2019-01-21T03:43:34.683Z,-5.71
2019-01-21T03:44:34.675Z,-5.75
2019-01-21T03:45:34.682Z,-5.79
2019-01-21T03:46:34.665Z,-5.84
2019-01-21T03:47:34.644Z,-5.84
2019-01-21T03:48:34.629Z,-5.89
2019-01-21T03:49:34.620Z,-5.81
2019-01-21T03:50:34.608Z,-5.85
2019-01-21T03:51:34.614Z,-5.89
2019-01-21T03:52:34.587Z,-5.89
2019-01-21T03:53:34.579Z,-5.89
2019-01-21T03:54:34.568Z,-5.90
2019-01-21T03:55:34.553Z,-5.93
2019-01-21T03:56:34.568Z,-5.93
2019-01-21T03:57:34.535Z,-5.84
2019-01-21T03:58:34.544Z,-5.81
2019-01-21T03:59:34.513Z,-5.86
2019-01-21T04:00:34.510Z,-5.93
2019-01-21T04:01:34.485Z,-5.95
2019-01-21T04:02:34.495Z,-6.00
2019-01-21T04:03:34.466Z,-5.90
2019-01-21T04:04:34.457Z,-5.82
2019-01-21T04:05:34.447Z,-5.89
2019-01-21T04:06:34.459Z,-5.86
2019-01-21T04:07:34.422Z,-5.86
2019-01-21T04:08:34.448Z,-5.86
2019-01-21T04:09:34.403Z,-5.85
2019-01-21T04:10:34.393Z,-5.84
2019-01-21T04:11:34.382Z,-6.00
2019-01-21T04:12:34.371Z,-5.84
2019-01-21T04:13:34.363Z,-5.85
2019-01-21T04:14:34.367Z,-6.00
2019-01-21T04:15:34.357Z,-5.95
2019-01-21T04:16:34.329Z,-6.00
2019-01-21T04:17:34.314Z,-5.96
2019-01-21T04:18:34.304Z,-6.02
2019-01-21T04:19:34.305Z,-6.00
2019-01-21T04:20:34.308Z,-5.96
2019-01-21T04:21:34.275Z,-5.99
2019-01-21T04:22:34.269Z,-5.96
2019-01-21T04:23:34.252Z,-5.89
2019-01-21T04:24:34.265Z,-5.96
2019-01-21T04:25:34.229Z,-5.89
2019-01-21T04:26:34.231Z,-5.86
2019-01-21T04:27:34.207Z,-5.99
2019-01-21T04:28:34.213Z,-5.85
2019-01-21T04:29:34.208Z,-5.92
2019-01-21T04:30:34.193Z,-5.92
2019-01-21T04:31:34.173Z,-5.85
2019-01-21T04:32:34.174Z,-5.79
2019-01-21T04:33:34.145Z,-5.85
2019-01-21T04:34:34.137Z,-5.81
2019-01-21T04:35:34.137Z,-5.92
2019-01-21T04:36:34.131Z,-5.97
2019-01-21T04:37:34.484Z,-5.97
2019-01-21T04:38:34.090Z,-5.96
2019-01-21T04:39:34.086Z,-6.02
2019-01-21T04:40:34.070Z,-6.11
2019-01-21T04:41:34.072Z,-5.97
2019-01-21T04:42:34.049Z,-6.10
2019-01-21T04:43:34.038Z,-6.05
2019-01-21T04:44:34.056Z,-6.03
2019-01-21T04:45:34.018Z,-6.05
2019-01-21T04:46:34.019Z,-6.02
2019-01-21T04:47:34.011Z,-6.02
2019-01-21T04:48:33.983Z,-6.02
2019-01-21T04:49:33.982Z,-6.00
2019-01-21T04:50:33.984Z,-6.02
2019-01-21T04:51:33.960Z,-6.13
2019-01-21T04:52:33.964Z,-6.07
2019-01-21T04:53:33.938Z,-6.07
2019-01-21T04:54:33.919Z,-6.11
2019-01-21T04:55:33.909Z,-6.15
2019-01-21T04:56:33.909Z,-6.18
2019-01-21T04:57:33.887Z,-6.20
2019-01-21T04:58:33.889Z,-6.14
2019-01-21T04:59:33.870Z,-6.21
2019-01-21T05:00:33.868Z,-6.20
2019-01-21T05:01:33.842Z,-6.21
2019-01-21T05:02:33.848Z,-6.18
2019-01-21T05:03:33.819Z,-6.17
2019-01-21T05:04:33.811Z,-6.21
2019-01-21T05:05:33.819Z,-6.20
2019-01-21T05:06:33.791Z,-6.26
2019-01-21T05:07:33.795Z,-6.18
2019-01-21T05:08:33.770Z,-6.20
2019-01-21T05:09:33.757Z,-6.29
2019-01-21T05:10:33.753Z,-6.29
2019-01-21T05:11:33.740Z,-6.23
2019-01-21T05:12:33.755Z,-6.20
2019-01-21T05:13:33.767Z,-6.26
2019-01-21T05:14:33.740Z,-6.31
2019-01-21T05:15:33.701Z,-6.26
2019-01-21T05:16:33.684Z,-6.26
2019-01-21T05:17:33.676Z,-6.18
2019-01-21T05:18:40.996Z,-6.26
2019-01-21T05:19:34.661Z,-6.32
2019-01-21T05:20:33.645Z,-6.32
2019-01-21T05:21:33.635Z,-6.34
2019-01-21T05:22:33.618Z,-6.29
2019-01-21T05:23:33.611Z,-6.29
2019-01-21T05:24:33.618Z,-6.31
2019-01-21T05:25:33.630Z,-6.32
2019-01-21T05:26:33.592Z,-6.34
2019-01-21T05:27:33.564Z,-6.32
2019-01-21T05:28:33.560Z,-6.18
2019-01-21T05:29:33.554Z,-6.15
2019-01-21T05:30:33.544Z,-6.23
2019-01-21T05:31:33.522Z,-6.20
2019-01-21T05:32:33.519Z,-6.28
2019-01-21T05:33:33.500Z,-6.24
2019-01-21T05:34:33.488Z,-6.28
2019-01-21T05:35:33.494Z,-6.35
2019-01-21T05:36:33.467Z,-6.36
2019-01-21T05:37:33.458Z,-6.29
2019-01-21T05:38:33.455Z,-6.36
2019-01-21T05:39:33.436Z,-6.32
2019-01-21T05:40:33.439Z,-6.35
2019-01-21T05:41:33.428Z,-6.31
2019-01-21T05:42:33.403Z,-6.24
2019-01-21T05:43:33.392Z,-6.28
2019-01-21T05:44:33.390Z,-6.31
2019-01-21T05:45:33.373Z,-6.28
2019-01-21T05:46:33.381Z,-6.34
2019-01-21T05:47:33.353Z,-6.32
2019-01-21T05:48:33.354Z,-6.31
2019-01-21T05:49:33.329Z,-6.34
2019-01-21T05:50:33.321Z,-6.36
2019-01-21T05:51:33.312Z,-6.39
2019-01-21T05:52:33.308Z,-6.35
2019-01-21T05:53:33.288Z,-6.32
2019-01-21T05:54:33.272Z,-6.47
2019-01-21T05:55:33.263Z,-6.49
2019-01-21T05:56:33.277Z,-6.39
2019-01-21T05:57:33.262Z,-6.36
2019-01-21T05:58:33.241Z,-6.31
2019-01-21T05:59:33.228Z,-6.39
2019-01-21T06:00:33.210Z,-6.41
2019-01-21T06:01:33.198Z,-6.38
2019-01-21T06:02:33.192Z,-6.35
2019-01-21T06:03:33.190Z,-6.38
2019-01-21T06:04:33.170Z,-6.35
2019-01-21T06:05:33.163Z,-6.32
2019-01-21T06:06:33.157Z,-6.31
2019-01-21T06:07:33.134Z,-6.31
2019-01-21T06:08:33.143Z,-6.35
2019-01-21T06:09:33.114Z,-6.31
2019-01-21T06:10:33.123Z,-6.26
2019-01-21T06:11:33.095Z,-6.34
2019-01-21T06:12:33.081Z,-6.36
2019-01-21T06:13:33.071Z,-6.38
2019-01-21T06:14:33.074Z,-6.35
2019-01-21T06:15:33.072Z,-6.36
2019-01-21T06:16:33.036Z,-6.32
2019-01-21T06:17:33.031Z,-6.34
2019-01-21T06:18:33.022Z,-6.41
2019-01-21T06:19:33.005Z,-6.35
2019-01-21T06:20:33.011Z,-6.32
2019-01-21T06:21:33.004Z,-6.36
2019-01-21T06:22:32.992Z,-6.29
2019-01-21T06:23:32.964Z,-6.34
2019-01-21T06:24:32.955Z,-6.31
2019-01-21T06:25:32.947Z,-6.39
2019-01-21T06:26:32.949Z,-6.38
2019-01-21T06:27:32.925Z,-6.41
2019-01-21T06:28:32.912Z,-6.34
2019-01-21T06:29:32.898Z,-6.38
2019-01-21T06:30:32.886Z,-6.39
2019-01-21T06:31:32.895Z,-6.39
2019-01-21T06:32:32.916Z,-6.36
2019-01-21T06:33:32.860Z,-6.28
2019-01-21T06:34:32.852Z,-6.31
2019-01-21T06:35:32.836Z,-6.32
2019-01-21T06:36:32.826Z,-6.32
2019-01-21T06:37:32.831Z,-6.36
2019-01-21T06:38:32.801Z,-6.39
2019-01-21T06:39:32.793Z,-6.42
2019-01-21T06:40:32.787Z,-6.42
2019-01-21T06:41:32.808Z,-6.54
2019-01-21T06:42:32.783Z,-6.47
2019-01-21T06:43:32.779Z,-6.61
2019-01-21T06:44:32.746Z,-6.49
2019-01-21T06:45:32.761Z,-6.61
2019-01-21T06:46:32.744Z,-6.56
2019-01-21T06:47:32.716Z,-6.61
2019-01-21T06:48:32.698Z,-6.60
2019-01-21T06:49:32.699Z,-6.56
2019-01-21T06:50:32.684Z,-6.58
2019-01-21T06:51:32.666Z,-6.60
2019-01-21T06:52:32.665Z,-6.56
2019-01-21T06:53:32.644Z,-6.68
2019-01-21T06:54:32.653Z,-6.65
2019-01-21T06:55:32.645Z,-6.65
2019-01-21T06:56:32.626Z,-6.68
2019-01-21T06:57:32.634Z,-6.66
2019-01-21T06:58:32.593Z,-6.63
2019-01-21T06:59:32.580Z,-6.65
2019-01-21T07:00:32.589Z,-6.61
2019-01-21T07:01:33.311Z,-6.61
2019-01-21T07:02:32.557Z,-6.53
2019-01-21T07:03:32.542Z,-6.66
2019-01-21T07:04:32.571Z,-6.61
2019-01-21T07:05:32.593Z,-6.50
2019-01-21T07:06:32.517Z,-6.54
2019-01-21T07:07:32.497Z,-6.46
2019-01-21T07:08:32.498Z,-6.49
2019-01-21T07:09:32.504Z,-6.58
2019-01-21T07:10:32.464Z,-6.47
2019-01-21T07:11:32.483Z,-6.52
2019-01-21T07:12:32.451Z,-6.53
2019-01-21T07:13:32.434Z,-6.50
2019-01-21T07:14:32.438Z,-6.52
2019-01-21T07:15:32.412Z,-6.52
2019-01-21T07:16:32.397Z,-6.52
2019-01-21T07:17:32.440Z,-6.47
2019-01-21T07:18:32.401Z,-6.52
2019-01-21T07:19:32.377Z,-6.58
2019-01-21T07:20:32.364Z,-6.53
2019-01-21T07:21:32.364Z,-6.50
2019-01-21T07:22:32.348Z,-6.53
2019-01-21T07:23:32.326Z,-6.50
2019-01-21T07:24:32.326Z,-6.52
2019-01-21T07:25:32.323Z,-6.46
2019-01-21T07:26:32.301Z,-6.50
2019-01-21T07:27:32.328Z,-6.49
2019-01-21T07:28:32.279Z,-6.52
2019-01-21T07:29:32.260Z,-6.49
2019-01-21T07:30:32.250Z,-6.68
2019-01-21T07:31:32.239Z,-6.65
2019-01-21T07:32:32.227Z,-6.56
2019-01-21T07:33:32.246Z,-6.54
2019-01-21T07:34:32.208Z,-6.56
2019-01-21T07:35:40.776Z,-6.61
2019-01-21T07:36:32.193Z,-6.53
2019-01-21T07:37:32.211Z,-6.54
2019-01-21T07:38:32.203Z,-6.53
2019-01-21T07:39:33.878Z,-6.60
2019-01-21T07:40:32.142Z,-6.53
2019-01-21T07:41:32.162Z,-6.54
2019-01-21T07:42:32.126Z,-6.54
2019-01-21T07:43:32.111Z,-6.53
2019-01-21T07:44:32.173Z,-6.61
2019-01-21T07:45:32.094Z,-6.63
2019-01-21T07:46:32.082Z,-6.71
2019-01-21T07:47:32.072Z,-6.68
2019-01-21T07:48:32.064Z,-6.72
2019-01-21T07:49:32.061Z,-6.83
2019-01-21T07:50:32.092Z,-6.76
2019-01-21T07:51:32.028Z,-6.84
2019-01-21T07:52:32.018Z,-6.79
2019-01-21T07:53:32.003Z,-6.87
2019-01-21T07:54:32.011Z,-6.86
2019-01-21T07:55:31.987Z,-6.83
2019-01-21T07:56:32.005Z,-6.74
2019-01-21T07:57:31.961Z,-6.75
2019-01-21T07:58:31.952Z,-6.68
2019-01-21T07:59:31.946Z,-6.63
2019-01-21T08:00:31.930Z,-6.58
2019-01-21T08:01:31.924Z,-6.63
2019-01-21T08:02:31.947Z,-6.53
2019-01-21T08:03:31.899Z,-6.53
2019-01-21T08:04:31.897Z,-6.52
2019-01-21T08:05:31.881Z,-6.47
2019-01-21T08:06:31.870Z,-6.47
2019-01-21T08:07:31.858Z,-6.41
2019-01-21T08:08:31.910Z,-6.41
2019-01-21T08:09:31.836Z,-6.36
2019-01-21T08:10:31.826Z,-6.41
2019-01-21T08:11:31.829Z,-6.41
2019-01-21T08:12:31.802Z,-6.47
2019-01-21T08:13:31.839Z,-6.49
2019-01-21T08:14:31.782Z,-6.38
2019-01-21T08:15:31.776Z,-6.39
2019-01-21T08:16:31.762Z,-6.36
2019-01-21T08:17:31.755Z,-6.36
2019-01-21T08:18:31.737Z,-6.34
2019-01-21T08:19:31.739Z,-6.24
2019-01-21T08:20:31.717Z,-6.29
2019-01-21T08:21:31.704Z,-6.26
2019-01-21T08:22:31.696Z,-6.26
2019-01-21T08:23:31.727Z,-6.26
2019-01-21T08:24:31.688Z,-6.32
2019-01-21T08:25:31.659Z,-6.31
2019-01-21T08:26:31.652Z,-6.23
2019-01-21T08:27:31.646Z,-6.21
2019-01-21T08:28:31.629Z,-6.24
2019-01-21T08:29:31.674Z,-6.15
2019-01-21T08:30:31.625Z,-6.10
2019-01-21T08:31:31.607Z,-6.14
2019-01-21T08:32:31.596Z,-6.13
2019-01-21T08:33:31.576Z,-6.11
2019-01-21T08:34:31.568Z,-5.96
2019-01-21T08:35:31.592Z,-5.93
2019-01-21T08:36:31.581Z,-5.96
2019-01-21T08:37:31.533Z,-5.86
2019-01-21T08:38:31.527Z,-5.89
2019-01-21T08:39:31.511Z,-5.78
2019-01-21T08:40:31.570Z,-5.53
2019-01-21T08:41:31.514Z,-5.36
2019-01-21T08:42:31.544Z,-5.03
2019-01-21T08:43:31.473Z,-4.85
2019-01-21T08:44:31.470Z,-4.63
2019-01-21T08:45:31.481Z,-4.45
2019-01-21T08:46:31.435Z,-4.13
2019-01-21T08:47:31.454Z,-3.61
2019-01-21T08:48:31.439Z,-3.40
2019-01-21T08:49:31.404Z,-3.49
2019-01-21T08:50:31.392Z,-3.20
2019-01-21T08:51:31.406Z,-3.07
2019-01-21T08:52:31.369Z,-2.97
2019-01-21T08:53:31.366Z,-2.84
2019-01-21T08:54:31.346Z,-2.73
2019-01-21T08:55:31.346Z,-2.53
2019-01-21T08:56:31.328Z,-2.42
2019-01-21T08:57:31.343Z,-2.37
2019-01-21T08:58:31.331Z,-2.38
2019-01-21T08:59:31.293Z,-2.22
2019-01-21T09:00:31.286Z,-2.04
2019-01-21T09:01:31.279Z,-2.00
2019-01-21T09:02:31.266Z,-1.86
2019-01-21T09:03:31.289Z,-1.77
2019-01-21T09:04:31.251Z,-1.80
2019-01-21T09:05:31.230Z,-1.64
2019-01-21T09:06:31.216Z,-1.53
2019-01-21T09:07:31.209Z,-1.48
2019-01-21T09:08:37.437Z,-1.30
2019-01-21T09:09:32.256Z,-1.32
2019-01-21T09:10:31.172Z,-1.47
2019-01-21T09:11:31.180Z,-1.79
2019-01-21T09:12:31.172Z,-1.69
2019-01-21T09:13:31.137Z,-1.51
2019-01-21T09:14:31.129Z,-1.02
2019-01-21T09:15:31.135Z,-0.86
2019-01-21T09:16:31.113Z,-0.85
2019-01-21T09:17:31.097Z,-1.02
2019-01-21T09:18:31.091Z,-1.09
2019-01-21T09:19:37.089Z,-1.32
2019-01-21T09:20:32.117Z,-1.72
2019-01-21T09:21:31.047Z,-1.97
2019-01-21T09:22:31.056Z,-2.10
2019-01-21T09:23:31.026Z,-2.18
2019-01-21T09:24:31.018Z,-2.37
2019-01-21T09:25:31.032Z,-2.47
2019-01-21T09:26:30.997Z,-2.62
2019-01-21T09:27:30.987Z,-2.73
2019-01-21T09:28:31.043Z,-2.73
2019-01-21T09:29:30.965Z,-2.86
2019-01-21T09:30:30.950Z,-2.81
2019-01-21T09:31:30.952Z,-2.95
2019-01-21T09:32:30.926Z,-2.95
2019-01-21T09:33:30.916Z,-2.86
2019-01-21T09:34:30.929Z,-2.70
2019-01-21T09:35:30.900Z,-2.65
2019-01-21T09:36:30.899Z,-2.63
2019-01-21T09:37:30.885Z,-2.52
2019-01-21T09:38:30.861Z,-2.37
2019-01-21T09:39:30.858Z,-2.34
2019-01-21T09:40:30.848Z,-2.26
2019-01-21T09:41:30.833Z,-2.21
2019-01-21T09:42:30.839Z,-2.32
2019-01-21T09:43:30.805Z,-2.15
2019-01-21T09:44:30.797Z,-2.12
2019-01-21T09:45:30.786Z,-2.04
2019-01-21T09:46:30.791Z,-2.00
2019-01-21T09:47:30.780Z,-1.89
2019-01-21T09:48:30.755Z,-1.83
2019-01-21T09:49:30.743Z,-1.71
2019-01-21T09:50:30.731Z,-1.76
2019-01-21T09:51:30.722Z,-1.74
2019-01-21T09:52:30.739Z,-1.83
2019-01-21T09:53:30.719Z,-1.72
2019-01-21T09:54:30.688Z,-1.80
2019-01-21T09:55:30.676Z,-1.82
2019-01-21T09:56:30.670Z,-1.80
2019-01-21T09:57:30.659Z,-1.87
2019-01-21T09:58:30.659Z,-1.87
2019-01-21T09:59:30.711Z,-1.74
2019-01-21T10:00:30.626Z,-1.82
2019-01-21T10:01:30.613Z,-1.71
2019-01-21T10:02:30.601Z,-1.77
2019-01-21T10:03:30.590Z,-1.71
2019-01-21T10:04:30.579Z,-1.72
2019-01-21T10:05:30.603Z,-1.66
2019-01-21T10:06:30.557Z,-1.61
2019-01-21T10:07:30.548Z,-1.47
2019-01-21T10:08:30.538Z,-1.58
2019-01-21T10:09:30.530Z,-1.56
2019-01-21T10:10:30.520Z,-1.53
2019-01-21T10:11:30.565Z,-1.50
2019-01-21T10:12:30.499Z,-1.47
2019-01-21T10:13:30.485Z,-1.47
2019-01-21T10:14:30.475Z,-1.35
2019-01-21T10:15:30.461Z,-1.37
2019-01-21T10:16:30.466Z,-1.37
2019-01-21T10:17:30.465Z,-1.30
2019-01-21T10:18:30.431Z,-1.33
2019-01-21T10:19:30.420Z,-1.27
2019-01-21T10:20:30.414Z,-1.25
2019-01-21T10:21:30.398Z,-1.23
2019-01-21T10:22:30.403Z,-1.15
2019-01-21T10:23:30.385Z,-1.19
2019-01-21T10:24:30.364Z,-1.12
2019-01-21T10:25:30.357Z,-1.20
2019-01-21T10:26:30.346Z,-1.17
2019-01-21T10:27:30.331Z,-1.19
2019-01-21T10:28:30.340Z,-1.14
2019-01-21T10:29:30.323Z,-1.12
2019-01-21T10:30:30.302Z,-1.11
2019-01-21T10:31:30.294Z,-1.07
2019-01-21T10:32:30.284Z,-1.05
2019-01-21T10:33:30.284Z,-1.01
2019-01-21T10:34:30.268Z,-0.86
2019-01-21T10:35:30.280Z,-0.91
2019-01-21T10:36:30.242Z,-0.89
2019-01-21T10:37:30.226Z,-0.77
2019-01-21T10:38:30.219Z,-0.80
2019-01-21T10:39:30.218Z,-0.75
2019-01-21T10:40:30.195Z,-0.91
2019-01-21T10:41:30.199Z,-0.74
2019-01-21T10:42:30.172Z,-0.65
2019-01-21T10:43:30.161Z,-0.72
2019-01-21T10:44:30.174Z,-0.65
2019-01-21T10:45:30.144Z,-0.61
2019-01-21T10:46:30.139Z,-0.62
2019-01-21T10:47:30.131Z,-0.50
2019-01-21T10:48:30.107Z,-0.49
2019-01-21T10:49:30.096Z,-0.34
2019-01-21T10:50:30.098Z,-0.34
2019-01-21T10:51:30.080Z,-0.25
2019-01-21T10:52:30.078Z,-0.14
2019-01-21T10:53:30.054Z,-0.29
2019-01-21T10:54:30.043Z,-0.17
2019-01-21T10:55:30.050Z,-0.03
2019-01-21T10:56:30.023Z,0.01
2019-01-21T10:57:30.010Z,0.10
2019-01-21T10:58:30.012Z,0.05
2019-01-21T10:59:29.992Z,0.15
2019-01-21T11:00:29.979Z,0.08
2019-01-21T11:01:29.980Z,0.22
2019-01-21T11:02:29.961Z,0.19
2019-01-21T11:03:29.945Z,0.28
2019-01-21T11:04:29.971Z,0.40
2019-01-21T11:05:29.927Z,0.41
2019-01-21T11:06:29.934Z,0.47
2019-01-21T11:07:29.914Z,0.49
2019-01-21T11:08:29.893Z,0.44
2019-01-21T11:09:29.878Z,0.52
2019-01-21T11:10:29.871Z,0.43
2019-01-21T11:11:29.874Z,0.46
2019-01-21T11:12:29.870Z,0.52
2019-01-21T11:13:29.837Z,0.59
2019-01-21T11:14:29.825Z,0.55
2019-01-21T11:15:29.816Z,0.56
2019-01-21T11:16:29.802Z,0.59
2019-01-21T11:17:29.801Z,0.65
2019-01-21T11:18:29.792Z,0.62
2019-01-21T11:19:29.769Z,0.66
2019-01-21T11:20:29.759Z,0.59
2019-01-21T11:21:29.747Z,0.69
2019-01-21T11:22:29.753Z,0.68
2019-01-21T11:23:29.753Z,0.62
2019-01-21T11:24:29.716Z,0.59
2019-01-21T11:25:29.704Z,0.69
2019-01-21T11:26:29.695Z,0.68
2019-01-21T11:27:29.683Z,0.74
2019-01-21T11:28:29.683Z,0.70
2019-01-21T11:29:29.686Z,0.78
2019-01-21T11:30:29.652Z,0.83
2019-01-21T11:31:29.638Z,0.81
2019-01-21T11:32:29.627Z,0.92
2019-01-21T11:33:29.615Z,0.94
2019-01-21T11:34:29.605Z,0.87
2019-01-21T11:35:29.611Z,0.91
2019-01-21T11:36:29.581Z,0.86
2019-01-21T11:37:29.572Z,0.84
2019-01-21T11:38:29.559Z,0.92
2019-01-21T11:39:29.547Z,1.04
2019-01-21T11:40:29.549Z,1.05
2019-01-21T11:41:29.544Z,1.04
2019-01-21T11:42:29.533Z,1.20
2019-01-21T11:43:29.505Z,1.24
2019-01-21T11:44:29.494Z,1.20
2019-01-21T11:45:29.482Z,1.31
2019-01-21T11:46:29.489Z,1.40
2019-01-21T11:47:29.485Z,1.35
2019-01-21T11:48:29.448Z,1.32
2019-01-21T11:49:29.437Z,1.37
2019-01-21T11:50:29.444Z,1.31
2019-01-21T11:51:29.417Z,1.28
2019-01-21T11:52:29.421Z,1.38
2019-01-21T11:53:29.394Z,1.48
2019-01-21T11:54:29.396Z,1.42
2019-01-21T11:55:29.371Z,1.42
2019-01-21T11:56:29.374Z,1.55
2019-01-21T11:57:29.349Z,1.55
2019-01-21T11:58:29.342Z,1.56
2019-01-21T11:59:29.326Z,1.59
2019-01-21T12:00:29.328Z,1.56
2019-01-21T12:01:29.319Z,1.58
2019-01-21T12:02:29.294Z,1.59
2019-01-21T12:03:29.285Z,1.63
2019-01-21T12:04:29.270Z,1.66
2019-01-21T12:05:29.261Z,1.77
2019-01-21T12:06:29.269Z,1.81
2019-01-21T12:07:29.238Z,1.74
2019-01-21T12:08:29.226Z,1.70
2019-01-21T12:09:29.227Z,1.71
2019-01-21T12:10:29.204Z,1.73
2019-01-21T12:11:29.193Z,1.76
2019-01-21T12:12:29.214Z,1.73
2019-01-21T12:13:29.171Z,1.78
2019-01-21T12:14:29.164Z,1.71
2019-01-21T12:15:29.148Z,1.76
2019-01-21T12:16:29.137Z,1.80
2019-01-21T12:17:29.128Z,1.88
2019-01-21T12:18:29.140Z,1.92
2019-01-21T12:19:29.107Z,2.06
2019-01-21T12:20:29.095Z,2.10
2019-01-21T12:21:29.082Z,2.17
2019-01-21T12:22:29.078Z,2.18
2019-01-21T12:23:29.070Z,2.36
2019-01-21T12:24:29.058Z,2.32
2019-01-21T12:25:29.040Z,2.28
2019-01-21T12:26:29.034Z,2.38
2019-01-21T12:27:29.015Z,2.42
2019-01-21T12:28:29.016Z,2.43
2019-01-21T12:29:28.993Z,2.51
2019-01-21T12:30:29.002Z,2.50
2019-01-21T12:31:28.984Z,2.51
2019-01-21T12:32:28.958Z,2.54
2019-01-21T12:33:28.948Z,2.39
2019-01-21T12:34:28.938Z,2.49
2019-01-21T12:35:28.925Z,2.42
2019-01-21T12:36:28.942Z,2.28
2019-01-21T12:37:28.906Z,2.28
2019-01-21T12:38:28.892Z,2.43
2019-01-21T12:39:28.882Z,2.42
2019-01-21T12:40:28.869Z,2.39
2019-01-21T12:41:28.860Z,2.47
2019-01-21T12:42:28.878Z,2.53
2019-01-21T12:43:28.836Z,2.53
2019-01-21T12:44:28.825Z,2.61
2019-01-21T12:45:28.814Z,2.57
2019-01-21T12:46:28.807Z,2.57
2019-01-21T12:47:28.802Z,2.49
2019-01-21T12:48:28.795Z,2.50
2019-01-21T12:49:28.769Z,2.49
2019-01-21T12:50:28.760Z,2.47
2019-01-21T12:51:28.755Z,2.28
2019-01-21T12:52:28.735Z,2.28
2019-01-21T12:53:28.737Z,2.35
2019-01-21T12:54:28.731Z,2.28
2019-01-21T12:55:28.709Z,2.22
2019-01-21T12:56:28.692Z,2.22